sensor_id;sensor_type;location;lat;lon;timestamp;P1;durP1;ratioP1;P2;durP2;ratioP2
46597;SDS011;32318;48.858;8.252;2023-04-01T00:05:31;4.25;;;0.70;;
46597;SDS011;32318;48.858;8.252;2023-04-01T00:13:31;7.47;;;1.17;;
46597;SDS011;32318;48.858;8.252;2023-04-01T00:21:32;7.20;;;1.02;;
46597;SDS011;32318;48.858;8.252;2023-04-01T00:29:33;7.33;;;1.47;;
46597;SDS011;32318;48.858;8.252;2023-04-01T00:37:35;10.05;;;1.70;;
46597;SDS011;32318;48.858;8.252;2023-04-01T00:45:38;5.35;;;0.90;;
46597;SDS011;32318;48.858;8.252;2023-04-01T00:53:41;3.38;;;0.90;;
46597;SDS011;32318;48.858;8.252;2023-04-01T01:01:46;7.65;;;0.95;;
46597;SDS011;32318;48.858;8.252;2023-04-01T01:09:51;5.47;;;0.80;;
46597;SDS011;32318;48.858;8.252;2023-04-01T01:34:52;1.93;;;0.90;;
46597;SDS011;32318;48.858;8.252;2023-04-01T01:42:59;2.45;;;0.32;;
46597;SDS011;32318;48.858;8.252;2023-04-01T01:51:05;1.00;;;0.20;;
46597;SDS011;32318;48.858;8.252;2023-04-01T01:59:07;0.32;;;0.10;;
46597;SDS011;32318;48.858;8.252;2023-04-01T02:07:13;1.58;;;0.30;;
46597;SDS011;32318;48.858;8.252;2023-04-01T02:15:18;0.90;;;0.40;;
46597;SDS011;32318;48.858;8.252;2023-04-01T02:23:21;1.55;;;0.40;;
46597;SDS011;32318;48.858;8.252;2023-04-01T02:31:22;1.17;;;0.30;;
46597;SDS011;32318;48.858;8.252;2023-04-01T02:39:23;1.75;;;0.43;;
46597;SDS011;32318;48.858;8.252;2023-04-01T02:47:25;0.70;;;0.30;;
46597;SDS011;32318;48.858;8.252;2023-04-01T02:55:25;2.15;;;0.40;;
46597;SDS011;32318;48.858;8.252;2023-04-01T03:03:26;1.00;;;0.32;;
46597;SDS011;32318;48.858;8.252;2023-04-01T03:11:26;0.70;;;0.20;;
46597;SDS011;32318;48.858;8.252;2023-04-01T03:19:26;1.90;;;0.40;;
46597;SDS011;32318;48.858;8.252;2023-04-01T03:27:27;1.48;;;0.40;;
46597;SDS011;32318;48.858;8.252;2023-04-01T03:35:27;5.93;;;0.70;;
46597;SDS011;32318;48.858;8.252;2023-04-01T03:43:27;3.33;;;0.68;;
46597;SDS011;32318;48.858;8.252;2023-04-01T03:51:28;5.60;;;0.77;;
46597;SDS011;32318;48.858;8.252;2023-04-01T03:59:28;2.45;;;0.65;;
46597;SDS011;32318;48.858;8.252;2023-04-01T04:07:28;9.15;;;0.80;;
46597;SDS011;32318;48.858;8.252;2023-04-01T04:15:29;6.35;;;1.08;;
46597;SDS011;32318;48.858;8.252;2023-04-01T04:23:29;9.68;;;1.10;;
46597;SDS011;32318;48.858;8.252;2023-04-01T04:31:30;8.15;;;1.02;;
46597;SDS011;32318;48.858;8.252;2023-04-01T04:39:30;7.68;;;1.02;;
46597;SDS011;32318;48.858;8.252;2023-04-01T04:47:30;5.22;;;0.95;;
46597;SDS011;32318;48.858;8.252;2023-04-01T04:55:31;2.80;;;0.60;;
46597;SDS011;32318;48.858;8.252;2023-04-01T05:03:31;5.15;;;0.60;;
46597;SDS011;32318;48.858;8.252;2023-04-01T05:11:31;4.78;;;0.77;;
46597;SDS011;32318;48.858;8.252;2023-04-01T05:19:32;6.50;;;0.50;;
46597;SDS011;32318;48.858;8.252;2023-04-01T05:27:32;3.55;;;1.00;;
46597;SDS011;32318;48.858;8.252;2023-04-01T05:35:33;3.08;;;0.80;;
46597;SDS011;32318;48.858;8.252;2023-04-01T05:43:35;11.40;;;1.17;;
46597;SDS011;32318;48.858;8.252;2023-04-01T05:51:36;3.55;;;0.63;;
46597;SDS011;32318;48.858;8.252;2023-04-01T05:59:37;2.13;;;0.63;;
46597;SDS011;32318;48.858;8.252;2023-04-01T06:07:37;6.13;;;1.20;;
46597;SDS011;32318;48.858;8.252;2023-04-01T06:15:56;3.00;;;0.98;;
46597;SDS011;32318;48.858;8.252;2023-04-01T06:40:49;5.57;;;0.82;;
46597;SDS011;32318;48.858;8.252;2023-04-01T06:57:52;4.53;;;0.97;;
46597;SDS011;32318;48.858;8.252;2023-04-01T07:13:52;5.22;;;1.00;;
46597;SDS011;32318;48.858;8.252;2023-04-01T07:47:40;7.60;;;1.40;;
46597;SDS011;32318;48.858;8.252;2023-04-01T07:56:08;8.85;;;1.20;;
46597;SDS011;32318;48.858;8.252;2023-04-01T08:04:22;10.23;;;1.50;;
46597;SDS011;32318;48.858;8.252;2023-04-01T08:21:16;19.50;;;1.77;;
46597;SDS011;32318;48.858;8.252;2023-04-01T08:29:22;5.53;;;1.23;;
46597;SDS011;32318;48.858;8.252;2023-04-01T08:37:31;10.07;;;1.65;;
46597;SDS011;32318;48.858;8.252;2023-04-01T08:45:45;16.42;;;2.00;;
46597;SDS011;32318;48.858;8.252;2023-04-01T09:27:34;3.63;;;1.13;;
46597;SDS011;32318;48.858;8.252;2023-04-01T09:35:48;8.02;;;1.48;;
46597;SDS011;32318;48.858;8.252;2023-04-01T09:44:00;5.57;;;1.23;;
46597;SDS011;32318;48.858;8.252;2023-04-01T11:07:03;8.20;;;1.70;;
46597;SDS011;32318;48.858;8.252;2023-04-01T15:57:29;5.45;;;1.42;;
46597;SDS011;32318;48.858;8.252;2023-04-01T16:22:25;7.95;;;2.05;;
46597;SDS011;32318;48.858;8.252;2023-04-01T16:30:39;5.97;;;2.42;;
46597;SDS011;32318;48.858;8.252;2023-04-01T16:47:09;8.90;;;2.33;;
46597;SDS011;32318;48.858;8.252;2023-04-01T16:55:15;5.13;;;1.65;;
46597;SDS011;32318;48.858;8.252;2023-04-01T17:03:26;5.32;;;1.40;;
46597;SDS011;32318;48.858;8.252;2023-04-01T17:28:13;3.40;;;1.30;;
46597;SDS011;32318;48.858;8.252;2023-04-01T17:36:36;5.03;;;1.55;;
46597;SDS011;32318;48.858;8.252;2023-04-01T17:45:04;9.15;;;3.08;;
46597;SDS011;32318;48.858;8.252;2023-04-01T17:53:24;9.80;;;3.15;;
46597;SDS011;32318;48.858;8.252;2023-04-01T18:09:51;7.28;;;2.25;;
46597;SDS011;32318;48.858;8.252;2023-04-01T18:18:03;7.38;;;2.20;;
46597;SDS011;32318;48.858;8.252;2023-04-01T18:26:34;9.20;;;3.20;;
46597;SDS011;32318;48.858;8.252;2023-04-01T18:34:43;7.85;;;2.08;;
46597;SDS011;32318;48.858;8.252;2023-04-01T18:42:55;10.20;;;3.58;;
46597;SDS011;32318;48.858;8.252;2023-04-01T19:00:02;6.63;;;1.67;;
46597;SDS011;32318;48.858;8.252;2023-04-01T19:25:27;7.20;;;1.80;;
46597;SDS011;32318;48.858;8.252;2023-04-01T19:33:59;3.85;;;1.50;;
46597;SDS011;32318;48.858;8.252;2023-04-01T19:42:12;2.75;;;1.05;;
46597;SDS011;32318;48.858;8.252;2023-04-01T20:06:57;2.45;;;1.10;;
46597;SDS011;32318;48.858;8.252;2023-04-01T20:15:18;5.28;;;1.40;;
46597;SDS011;32318;48.858;8.252;2023-04-01T20:23:33;3.33;;;1.20;;
46597;SDS011;32318;48.858;8.252;2023-04-01T20:31:40;5.00;;;1.33;;
46597;SDS011;32318;48.858;8.252;2023-04-01T20:56:34;3.53;;;1.40;;
46597;SDS011;32318;48.858;8.252;2023-04-01T21:21:34;0.93;;;0.73;;
46597;SDS011;32318;48.858;8.252;2023-04-01T22:28:07;1.80;;;0.50;;
46597;SDS011;32318;48.858;8.252;2023-04-01T22:44:38;2.00;;;0.60;;
46597;SDS011;32318;48.858;8.252;2023-04-01T23:01:19;0.83;;;0.53;;
46597;SDS011;32318;48.858;8.252;2023-04-01T23:09:36;1.27;;;0.65;;
46597;SDS011;32318;48.858;8.252;2023-04-01T23:17:42;2.70;;;0.70;;
46597;SDS011;32318;48.858;8.252;2023-04-01T23:26:01;1.35;;;0.50;;
46597;SDS011;32318;48.858;8.252;2023-04-01T23:34:18;1.27;;;0.60;;
46597;SDS011;32318;48.858;8.252;2023-04-01T23:42:23;5.10;;;0.57;;
46597;SDS011;32318;48.858;8.252;2023-04-01T23:50:26;2.03;;;0.60;;
